Upper Valley, Nevada
Current Conditions -  °F | °C
As of 8:53 PM on Friday 21 Nov 2014 (Local Time) from KLOL Reporting Station
Overcast Overcast  
Wind Chill: 46°   Ceiling: 5000
Heat Index: 46°   Visibility: 10mi
Dew Point: 37°   Wind: 3mph
Humidity: 71%   Direction: 210°SSW
Pressure: 30.02"   Gusts: NA
Location:  40.3545°N, 118.628°W
Report Text: KLOL 220453Z AUTO 21003KT 10SM BKN050 OVC095 08/03 A3002 RMK AO2 SLP173 T00780028
Loading
Personal Weather Stations






























Interactive Weather Map New forecast layout! Learn more

10-Day Weather Forecast

Advertisements
Track Severe Weather on mobile